sensor_id;sensor_type;location;lat;lon;timestamp;pressure;altitude;pressure_sealevel;temperature;humidity
26859;BME280;14429;48.346;16.338;2023-07-13T00:00:21;99430.97;;;29.82;43.49
26859;BME280;14429;48.346;16.338;2023-07-13T00:02:47;99432.81;;;29.70;43.37
26859;BME280;14429;48.346;16.338;2023-07-13T00:05:13;99436.63;;;27.96;46.21
26859;BME280;14429;48.346;16.338;2023-07-13T00:07:39;99437.19;;;29.07;44.84
26859;BME280;14429;48.346;16.338;2023-07-13T00:10:05;99421.22;;;29.51;43.82
26859;BME280;14429;48.346;16.338;2023-07-13T00:12:33;99410.59;;;29.54;43.79
26859;BME280;14429;48.346;16.338;2023-07-13T00:15:01;99402.09;;;29.55;43.58
26859;BME280;14429;48.346;16.338;2023-07-13T00:17:28;99404.09;;;29.66;43.64
26859;BME280;14429;48.346;16.338;2023-07-13T00:19:54;99401.59;;;29.65;43.40
26859;BME280;14429;48.346;16.338;2023-07-13T00:22:22;99398.31;;;29.03;44.58
26859;BME280;14429;48.346;16.338;2023-07-13T00:24:47;99393.97;;;29.14;44.89
26859;BME280;14429;48.346;16.338;2023-07-13T00:27:13;99393.81;;;28.67;44.51
26859;BME280;14429;48.346;16.338;2023-07-13T00:29:39;99381.19;;;26.95;47.90
26859;BME280;14429;48.346;16.338;2023-07-13T00:32:06;99375.94;;;28.10;47.30
26859;BME280;14429;48.346;16.338;2023-07-13T00:34:31;99375.66;;;28.18;47.02
26859;BME280;14429;48.346;16.338;2023-07-13T00:36:57;99378.94;;;28.74;45.45
26859;BME280;14429;48.346;16.338;2023-07-13T00:39:24;99377.81;;;28.64;45.86
26859;BME280;14429;48.346;16.338;2023-07-13T00:41:50;99381.16;;;28.66;46.09
26859;BME280;14429;48.346;16.338;2023-07-13T00:44:17;99375.84;;;28.89;45.28
26859;BME280;14429;48.346;16.338;2023-07-13T00:46:43;99380.53;;;29.24;44.27
26859;BME280;14429;48.346;16.338;2023-07-13T00:49:12;99383.50;;;29.04;44.98
26859;BME280;14429;48.346;16.338;2023-07-13T00:51:41;99393.22;;;27.87;45.89
26859;BME280;14429;48.346;16.338;2023-07-13T00:54:11;99384.97;;;28.17;47.01
26859;BME280;14429;48.346;16.338;2023-07-13T00:56:39;99375.09;;;27.79;46.62
26859;BME280;14429;48.346;16.338;2023-07-13T00:59:07;99374.31;;;27.35;48.52
26859;BME280;14429;48.346;16.338;2023-07-13T01:01:33;99363.03;;;27.07;48.03
26859;BME280;14429;48.346;16.338;2023-07-13T01:03:59;99360.09;;;27.82;47.76
26859;BME280;14429;48.346;16.338;2023-07-13T01:06:24;99353.00;;;28.05;46.62
26859;BME280;14429;48.346;16.338;2023-07-13T01:08:50;99356.22;;;28.43;46.31
26859;BME280;14429;48.346;16.338;2023-07-13T01:11:19;99345.69;;;28.23;45.07
26859;BME280;14429;48.346;16.338;2023-07-13T01:13:46;99338.59;;;28.57;44.57
26859;BME280;14429;48.346;16.338;2023-07-13T01:16:15;99340.72;;;28.07;45.47
26859;BME280;14429;48.346;16.338;2023-07-13T01:18:43;99341.19;;;28.88;45.03
26859;BME280;14429;48.346;16.338;2023-07-13T01:21:10;99336.00;;;28.62;45.74
26859;BME280;14429;48.346;16.338;2023-07-13T01:23:35;99329.22;;;26.76;48.67
26859;BME280;14429;48.346;16.338;2023-07-13T01:26:01;99334.97;;;27.11;49.28
26859;BME280;14429;48.346;16.338;2023-07-13T01:28:27;99348.31;;;27.44;48.37
26859;BME280;14429;48.346;16.338;2023-07-13T01:30:54;99348.97;;;27.77;46.28
26859;BME280;14429;48.346;16.338;2023-07-13T01:33:20;99328.84;;;28.61;45.74
26859;BME280;14429;48.346;16.338;2023-07-13T01:35:46;99320.38;;;28.39;45.64
26859;BME280;14429;48.346;16.338;2023-07-13T01:38:14;99327.72;;;27.66;47.09
26859;BME280;14429;48.346;16.338;2023-07-13T01:40:40;99330.09;;;28.17;46.28
26859;BME280;14429;48.346;16.338;2023-07-13T01:43:06;99325.72;;;27.12;45.83
26859;BME280;14429;48.346;16.338;2023-07-13T01:45:32;99327.28;;;27.99;46.49
26859;BME280;14429;48.346;16.338;2023-07-13T01:47:57;99330.13;;;28.59;45.72
26859;BME280;14429;48.346;16.338;2023-07-13T01:50:23;99326.28;;;28.18;43.96
26859;BME280;14429;48.346;16.338;2023-07-13T01:52:48;99328.06;;;28.54;43.75
26859;BME280;14429;48.346;16.338;2023-07-13T01:55:15;99329.44;;;28.45;45.43
26859;BME280;14429;48.346;16.338;2023-07-13T01:57:41;99325.75;;;28.51;45.16
26859;BME280;14429;48.346;16.338;2023-07-13T02:00:08;99315.09;;;28.61;45.18
26859;BME280;14429;48.346;16.338;2023-07-13T02:02:34;99319.59;;;28.08;45.82
26859;BME280;14429;48.346;16.338;2023-07-13T02:04:59;99314.84;;;28.21;45.88
26859;BME280;14429;48.346;16.338;2023-07-13T02:07:25;99306.47;;;28.16;44.27
26859;BME280;14429;48.346;16.338;2023-07-13T02:09:50;99313.13;;;28.50;44.77
26859;BME280;14429;48.346;16.338;2023-07-13T02:12:17;99314.34;;;28.30;45.32
26859;BME280;14429;48.346;16.338;2023-07-13T02:14:42;99322.81;;;28.71;44.59
26859;BME280;14429;48.346;16.338;2023-07-13T02:17:09;99350.75;;;28.43;45.00
26859;BME280;14429;48.346;16.338;2023-07-13T02:19:35;99341.72;;;28.61;44.75
26859;BME280;14429;48.346;16.338;2023-07-13T02:22:00;99341.63;;;28.67;44.54
26859;BME280;14429;48.346;16.338;2023-07-13T02:24:26;99343.44;;;28.79;44.25
26859;BME280;14429;48.346;16.338;2023-07-13T02:26:51;99342.75;;;28.18;44.68
26859;BME280;14429;48.346;16.338;2023-07-13T02:29:18;99354.84;;;28.35;44.74
26859;BME280;14429;48.346;16.338;2023-07-13T02:31:43;99387.03;;;28.70;44.61
26859;BME280;14429;48.346;16.338;2023-07-13T02:34:09;99395.59;;;28.38;45.49
26859;BME280;14429;48.346;16.338;2023-07-13T02:36:34;99401.59;;;27.98;45.39
26859;BME280;14429;48.346;16.338;2023-07-13T02:39:02;99423.41;;;28.17;45.90
26859;BME280;14429;48.346;16.338;2023-07-13T02:41:28;99426.41;;;28.09;45.82
26859;BME280;14429;48.346;16.338;2023-07-13T02:43:53;99446.25;;;27.74;46.60
26859;BME280;14429;48.346;16.338;2023-07-13T02:46:20;99443.47;;;28.11;45.06
26859;BME280;14429;48.346;16.338;2023-07-13T02:48:46;99471.72;;;28.18;45.97
26859;BME280;14429;48.346;16.338;2023-07-13T02:51:11;99491.56;;;27.77;47.21
26859;BME280;14429;48.346;16.338;2023-07-13T02:53:37;99494.03;;;27.97;45.89
26859;BME280;14429;48.346;16.338;2023-07-13T02:56:03;99504.78;;;28.29;45.71
26859;BME280;14429;48.346;16.338;2023-07-13T02:58:28;99517.00;;;28.03;46.15
26859;BME280;14429;48.346;16.338;2023-07-13T03:00:55;99516.59;;;28.30;45.46
26859;BME280;14429;48.346;16.338;2023-07-13T03:03:22;99522.03;;;28.43;45.23
26859;BME280;14429;48.346;16.338;2023-07-13T03:05:48;99509.38;;;28.42;45.19
26859;BME280;14429;48.346;16.338;2023-07-13T03:08:22;99528.09;;;28.14;46.20
26859;BME280;14429;48.346;16.338;2023-07-13T03:10:48;99536.25;;;27.84;46.84
26859;BME280;14429;48.346;16.338;2023-07-13T03:13:13;99537.09;;;27.90;46.74
26859;BME280;14429;48.346;16.338;2023-07-13T03:15:38;99538.22;;;28.20;45.73
26859;BME280;14429;48.346;16.338;2023-07-13T03:18:04;99542.66;;;27.65;48.57
26859;BME280;14429;48.346;16.338;2023-07-13T03:20:33;99546.09;;;28.41;45.39
26859;BME280;14429;48.346;16.338;2023-07-13T03:22:58;99547.06;;;27.79;48.02
26859;BME280;14429;48.346;16.338;2023-07-13T03:25:24;99562.03;;;27.70;47.84
26859;BME280;14429;48.346;16.338;2023-07-13T03:27:49;99558.88;;;27.73;48.26
26859;BME280;14429;48.346;16.338;2023-07-13T03:30:15;99560.22;;;27.26;49.41
26859;BME280;14429;48.346;16.338;2023-07-13T03:32:40;99562.91;;;27.64;48.11
26859;BME280;14429;48.346;16.338;2023-07-13T03:35:06;99561.13;;;27.95;47.62
26859;BME280;14429;48.346;16.338;2023-07-13T03:37:33;99573.41;;;27.86;47.02
26859;BME280;14429;48.346;16.338;2023-07-13T03:39:58;99566.44;;;27.77;47.61
26859;BME280;14429;48.346;16.338;2023-07-13T03:42:24;99579.00;;;27.16;52.06
26859;BME280;14429;48.346;16.338;2023-07-13T03:44:49;99574.31;;;27.61;47.77
26859;BME280;14429;48.346;16.338;2023-07-13T03:47:15;99582.38;;;27.24;49.86
26859;BME280;14429;48.346;16.338;2023-07-13T03:49:40;99582.59;;;27.35;49.00
26859;BME280;14429;48.346;16.338;2023-07-13T03:52:06;99578.91;;;27.80;47.70
26859;BME280;14429;48.346;16.338;2023-07-13T03:54:33;99569.59;;;27.81;49.04
26859;BME280;14429;48.346;16.338;2023-07-13T03:56:58;99578.50;;;27.70;48.67
26859;BME280;14429;48.346;16.338;2023-07-13T03:59:23;99578.19;;;26.71;51.14
26859;BME280;14429;48.346;16.338;2023-07-13T04:01:49;99571.38;;;27.56;48.35
26859;BME280;14429;48.346;16.338;2023-07-13T04:04:14;99574.56;;;27.40;49.13
26859;BME280;14429;48.346;16.338;2023-07-13T04:06:40;99570.47;;;27.75;47.94
26859;BME280;14429;48.346;16.338;2023-07-13T04:09:05;99580.94;;;28.03;47.23
26859;BME280;14429;48.346;16.338;2023-07-13T04:11:32;99561.84;;;27.71;48.24
26859;BME280;14429;48.346;16.338;2023-07-13T04:13:58;99564.28;;;27.30;52.42
26859;BME280;14429;48.346;16.338;2023-07-13T04:16:23;99565.53;;;26.76;53.17
26859;BME280;14429;48.346;16.338;2023-07-13T04:18:49;99562.34;;;26.60;52.84
26859;BME280;14429;48.346;16.338;2023-07-13T04:21:16;99539.34;;;27.44;50.83
26859;BME280;14429;48.346;16.338;2023-07-13T04:23:41;99545.75;;;26.93;52.44
26859;BME280;14429;48.346;16.338;2023-07-13T04:26:07;99548.56;;;27.62;49.97
26859;BME280;14429;48.346;16.338;2023-07-13T04:28:35;99540.22;;;27.32;50.03
26859;BME280;14429;48.346;16.338;2023-07-13T04:31:00;99539.31;;;27.57;48.88
26859;BME280;14429;48.346;16.338;2023-07-13T04:33:26;99546.13;;;27.09;50.99
26859;BME280;14429;48.346;16.338;2023-07-13T04:35:53;99536.44;;;27.07;50.50
26859;BME280;14429;48.346;16.338;2023-07-13T04:38:19;99540.03;;;27.01;50.58
26859;BME280;14429;48.346;16.338;2023-07-13T04:40:45;99528.38;;;27.50;50.90
26859;BME280;14429;48.346;16.338;2023-07-13T04:43:10;99535.41;;;27.02;52.60
26859;BME280;14429;48.346;16.338;2023-07-13T04:45:37;99518.16;;;27.70;48.98
26859;BME280;14429;48.346;16.338;2023-07-13T04:48:03;99527.28;;;28.14;47.51
26859;BME280;14429;48.346;16.338;2023-07-13T04:50:29;99526.03;;;27.54;49.90
26859;BME280;14429;48.346;16.338;2023-07-13T04:52:54;99513.41;;;28.02;47.52
26859;BME280;14429;48.346;16.338;2023-07-13T04:55:20;99515.03;;;28.16;47.52
26859;BME280;14429;48.346;16.338;2023-07-13T04:57:46;99506.69;;;27.92;48.07
26859;BME280;14429;48.346;16.338;2023-07-13T05:00:13;99500.44;;;27.79;48.52
26859;BME280;14429;48.346;16.338;2023-07-13T05:02:39;99499.06;;;28.00;47.95
26859;BME280;14429;48.346;16.338;2023-07-13T05:05:06;99501.47;;;27.03;54.69
26859;BME280;14429;48.346;16.338;2023-07-13T05:07:32;99501.06;;;26.67;55.43
26859;BME280;14429;48.346;16.338;2023-07-13T05:09:57;99493.91;;;26.73;53.11
26859;BME280;14429;48.346;16.338;2023-07-13T05:12:22;99494.00;;;25.09;61.61
26859;BME280;14429;48.346;16.338;2023-07-13T05:14:48;99484.72;;;25.89;55.03
26859;BME280;14429;48.346;16.338;2023-07-13T05:17:13;99476.41;;;26.61;53.98
26859;BME280;14429;48.346;16.338;2023-07-13T05:19:40;99474.75;;;26.53;55.66
26859;BME280;14429;48.346;16.338;2023-07-13T05:22:05;99474.03;;;27.41;50.04
26859;BME280;14429;48.346;16.338;2023-07-13T05:24:31;99456.91;;;27.95;48.29
26859;BME280;14429;48.346;16.338;2023-07-13T05:26:56;99449.00;;;27.68;50.65
26859;BME280;14429;48.346;16.338;2023-07-13T05:29:22;99454.09;;;27.58;49.61
26859;BME280;14429;48.346;16.338;2023-07-13T05:31:48;99449.13;;;27.42;49.99
26859;BME280;14429;48.346;16.338;2023-07-13T05:34:14;99447.44;;;27.41;50.66
26859;BME280;14429;48.346;16.338;2023-07-13T05:36:41;99447.50;;;27.22;50.71
26859;BME280;14429;48.346;16.338;2023-07-13T05:39:06;99455.22;;;27.44;49.90
26859;BME280;14429;48.346;16.338;2023-07-13T05:41:32;99455.84;;;27.53;49.74
26859;BME280;14429;48.346;16.338;2023-07-13T05:43:57;99465.47;;;26.67;53.85
26859;BME280;14429;48.346;16.338;2023-07-13T05:46:23;99471.06;;;27.42;50.02
26859;BME280;14429;48.346;16.338;2023-07-13T05:48:48;99475.19;;;27.64;49.22
26859;BME280;14429;48.346;16.338;2023-07-13T05:51:14;99486.69;;;27.10;51.73
26859;BME280;14429;48.346;16.338;2023-07-13T05:53:40;99474.03;;;27.22;52.15
26859;BME280;14429;48.346;16.338;2023-07-13T05:56:06;99471.38;;;27.59;49.98
26859;BME280;14429;48.346;16.338;2023-07-13T05:58:31;99476.44;;;27.68;49.28
26859;BME280;14429;48.346;16.338;2023-07-13T06:01:01;99482.00;;;27.42;50.03
26859;BME280;14429;48.346;16.338;2023-07-13T06:03:27;99486.94;;;27.02;51.14
26859;BME280;14429;48.346;16.338;2023-07-13T06:05:52;99486.44;;;27.43;49.71
26859;BME280;14429;48.346;16.338;2023-07-13T06:08:18;99492.00;;;27.74;48.74
26859;BME280;14429;48.346;16.338;2023-07-13T06:10:44;99488.59;;;27.03;51.70
26859;BME280;14429;48.346;16.338;2023-07-13T06:13:10;99494.31;;;27.77;48.57
26859;BME280;14429;48.346;16.338;2023-07-13T06:15:35;99496.56;;;27.92;48.39
26859;BME280;14429;48.346;16.338;2023-07-13T06:18:01;99499.84;;;28.07;47.68
26859;BME280;14429;48.346;16.338;2023-07-13T06:20:26;99502.81;;;28.12;47.53
26859;BME280;14429;48.346;16.338;2023-07-13T06:22:51;99512.00;;;28.24;47.24
26859;BME280;14429;48.346;16.338;2023-07-13T06:25:17;99501.22;;;28.29;47.24
26859;BME280;14429;48.346;16.338;2023-07-13T06:27:44;99507.31;;;28.31;47.00
26859;BME280;14429;48.346;16.338;2023-07-13T06:30:11;99498.13;;;28.19;47.27
26859;BME280;14429;48.346;16.338;2023-07-13T06:32:36;99507.31;;;28.31;47.13
26859;BME280;14429;48.346;16.338;2023-07-13T06:35:02;99507.31;;;28.31;46.99
26859;BME280;14429;48.346;16.338;2023-07-13T06:37:27;99511.97;;;28.30;47.00
26859;BME280;14429;48.346;16.338;2023-07-13T06:39:53;99511.75;;;28.32;46.68
26859;BME280;14429;48.346;16.338;2023-07-13T06:42:18;99514.22;;;28.09;47.62
26859;BME280;14429;48.346;16.338;2023-07-13T06:44:45;99518.03;;;28.08;48.52
26859;BME280;14429;48.346;16.338;2023-07-13T06:47:10;99526.47;;;28.07;47.59
26859;BME280;14429;48.346;16.338;2023-07-13T06:49:36;99537.16;;;28.21;47.84
26859;BME280;14429;48.346;16.338;2023-07-13T06:52:02;99543.31;;;28.10;47.43
26859;BME280;14429;48.346;16.338;2023-07-13T06:54:27;99548.91;;;27.97;48.82
26859;BME280;14429;48.346;16.338;2023-07-13T06:56:52;99549.31;;;28.01;47.95
26859;BME280;14429;48.346;16.338;2023-07-13T06:59:18;99553.00;;;28.19;47.09
26859;BME280;14429;48.346;16.338;2023-07-13T07:01:45;99556.88;;;28.05;47.52
26859;BME280;14429;48.346;16.338;2023-07-13T07:04:10;99545.47;;;28.08;47.73
26859;BME280;14429;48.346;16.338;2023-07-13T07:06:36;99558.81;;;27.98;48.61
26859;BME280;14429;48.346;16.338;2023-07-13T07:09:01;99558.81;;;27.92;48.59
26859;BME280;14429;48.346;16.338;2023-07-13T07:11:27;99556.88;;;28.05;47.97
26859;BME280;14429;48.346;16.338;2023-07-13T07:13:53;99551.81;;;28.02;48.13
26859;BME280;14429;48.346;16.338;2023-07-13T07:16:19;99551.97;;;27.58;49.79
26859;BME280;14429;48.346;16.338;2023-07-13T07:18:46;99544.22;;;28.04;48.07
26859;BME280;14429;48.346;16.338;2023-07-13T07:21:12;99543.44;;;27.91;48.63
26859;BME280;14429;48.346;16.338;2023-07-13T07:23:38;99543.91;;;27.69;50.40
26859;BME280;14429;48.346;16.338;2023-07-13T07:26:03;99553.88;;;27.51;49.95
26859;BME280;14429;48.346;16.338;2023-07-13T07:28:29;99556.22;;;28.03;47.91
26859;BME280;14429;48.346;16.338;2023-07-13T07:30:56;99554.38;;;27.85;48.58
26859;BME280;14429;48.346;16.338;2023-07-13T07:33:22;99542.47;;;28.16;47.92
26859;BME280;14429;48.346;16.338;2023-07-13T07:35:49;99538.28;;;28.07;48.29
26859;BME280;14429;48.346;16.338;2023-07-13T07:38:14;99549.00;;;28.15;47.91
26859;BME280;14429;48.346;16.338;2023-07-13T07:40:40;99544.91;;;27.93;48.09
26859;BME280;14429;48.346;16.338;2023-07-13T07:43:06;99549.25;;;28.07;47.80
26859;BME280;14429;48.346;16.338;2023-07-13T07:45:32;99547.06;;;28.22;47.59
26859;BME280;14429;48.346;16.338;2023-07-13T07:47:57;99552.63;;;28.09;47.97
26859;BME280;14429;48.346;16.338;2023-07-13T07:50:22;99543.75;;;28.14;47.47
26859;BME280;14429;48.346;16.338;2023-07-13T07:52:49;99543.31;;;28.17;47.61
26859;BME280;14429;48.346;16.338;2023-07-13T07:55:15;99556.78;;;28.18;47.59
26859;BME280;14429;48.346;16.338;2023-07-13T07:57:40;99566.09;;;28.17;47.50
26859;BME280;14429;48.346;16.338;2023-07-13T08:00:07;99556.88;;;28.05;47.80
26859;BME280;14429;48.346;16.338;2023-07-13T08:02:32;99556.50;;;27.95;48.28
26859;BME280;14429;48.346;16.338;2023-07-13T08:04:58;99554.94;;;28.12;47.55
26859;BME280;14429;48.346;16.338;2023-07-13T08:07:23;99556.84;;;28.12;47.67
26859;BME280;14429;48.346;16.338;2023-07-13T08:09:53;99548.78;;;28.17;47.63
26859;BME280;14429;48.346;16.338;2023-07-13T08:12:18;99550.97;;;28.08;47.68
26859;BME280;14429;48.346;16.338;2023-07-13T08:14:44;99550.56;;;27.98;48.41
26859;BME280;14429;48.346;16.338;2023-07-13T08:17:09;99558.53;;;28.06;47.63
26859;BME280;14429;48.346;16.338;2023-07-13T08:19:35;99554.09;;;28.12;47.58
26859;BME280;14429;48.346;16.338;2023-07-13T08:22:00;99558.97;;;28.03;47.80
26859;BME280;14429;48.346;16.338;2023-07-13T08:24:26;99559.78;;;28.10;47.65
26859;BME280;14429;48.346;16.338;2023-07-13T08:26:52;99553.91;;;28.00;47.89
26859;BME280;14429;48.346;16.338;2023-07-13T08:29:18;99552.31;;;27.93;48.79
26859;BME280;14429;48.346;16.338;2023-07-13T08:31:44;99552.31;;;27.87;48.19
26859;BME280;14429;48.346;16.338;2023-07-13T08:34:09;99554.13;;;28.05;47.62
26859;BME280;14429;48.346;16.338;2023-07-13T08:36:34;99561.56;;;27.92;49.21
26859;BME280;14429;48.346;16.338;2023-07-13T08:39:00;99550.56;;;27.98;48.17
26859;BME280;14429;48.346;16.338;2023-07-13T08:41:26;99560.47;;;28.06;47.76
26859;BME280;14429;48.346;16.338;2023-07-13T08:43:57;99565.94;;;28.06;48.13
26859;BME280;14429;48.346;16.338;2023-07-13T08:46:26;99556.88;;;28.05;48.12
26859;BME280;14429;48.346;16.338;2023-07-13T08:48:56;99556.50;;;27.95;48.63
26859;BME280;14429;48.346;16.338;2023-07-13T08:51:29;99546.31;;;28.02;48.07
26859;BME280;14429;48.346;16.338;2023-07-13T08:53:59;99558.53;;;28.06;48.19
26859;BME280;14429;48.346;16.338;2023-07-13T08:56:28;99564.94;;;27.94;52.29
26859;BME280;14429;48.346;16.338;2023-07-13T08:59:00;99558.94;;;28.16;47.70
26859;BME280;14429;48.346;16.338;2023-07-13T09:01:31;99545.47;;;28.08;48.32
26859;BME280;14429;48.346;16.338;2023-07-13T09:04:04;99569.94;;;28.03;48.71
26859;BME280;14429;48.346;16.338;2023-07-13T09:06:36;99560.59;;;28.17;48.24
26859;BME280;14429;48.346;16.338;2023-07-13T09:09:08;99569.00;;;28.22;50.47
26859;BME280;14429;48.346;16.338;2023-07-13T09:11:44;99572.00;;;28.20;50.67
26859;BME280;14429;48.346;16.338;2023-07-13T09:14:29;99579.63;;;28.12;48.70
26859;BME280;14429;48.346;16.338;2023-07-13T09:16:58;99581.69;;;28.23;48.02
26859;BME280;14429;48.346;16.338;2023-07-13T09:19:28;99591.38;;;28.25;47.97
26859;BME280;14429;48.346;16.338;2023-07-13T09:21:55;99580.22;;;28.20;48.20
26859;BME280;14429;48.346;16.338;2023-07-13T09:24:36;99583.63;;;28.16;49.97
26859;BME280;14429;48.346;16.338;2023-07-13T09:27:09;99594.56;;;28.22;47.72
26859;BME280;14429;48.346;16.338;2023-07-13T09:29:41;99593.06;;;28.26;48.12
26859;BME280;14429;48.346;16.338;2023-07-13T09:32:10;99585.06;;;28.25;48.29
26859;BME280;14429;48.346;16.338;2023-07-13T09:34:38;99587.56;;;28.26;48.23
26859;BME280;14429;48.346;16.338;2023-07-13T09:37:04;99585.06;;;28.25;48.08
26859;BME280;14429;48.346;16.338;2023-07-13T09:39:32;99581.63;;;28.36;47.72
26859;BME280;14429;48.346;16.338;2023-07-13T09:42:01;99579.09;;;28.34;48.58
26859;BME280;14429;48.346;16.338;2023-07-13T09:44:30;99579.03;;;28.41;47.68
26859;BME280;14429;48.346;16.338;2023-07-13T09:46:58;99575.63;;;28.51;47.70
26859;BME280;14429;48.346;16.338;2023-07-13T09:49:24;99575.47;;;28.46;47.66
26859;BME280;14429;48.346;16.338;2023-07-13T09:51:57;99588.56;;;28.44;47.37
26859;BME280;14429;48.346;16.338;2023-07-13T09:54:24;99578.09;;;28.59;47.88
26859;BME280;14429;48.346;16.338;2023-07-13T09:56:54;99590.44;;;28.50;47.72
26859;BME280;14429;48.346;16.338;2023-07-13T09:59:20;99574.75;;;28.57;47.71
26859;BME280;14429;48.346;16.338;2023-07-13T10:01:46;99585.03;;;28.68;48.85
26859;BME280;14429;48.346;16.338;2023-07-13T10:04:13;99588.22;;;28.65;47.82
26859;BME280;14429;48.346;16.338;2023-07-13T10:06:41;99581.66;;;28.66;47.19
26859;BME280;14429;48.346;16.338;2023-07-13T10:09:07;99591.94;;;28.46;48.61
26859;BME280;14429;48.346;16.338;2023-07-13T10:11:35;99598.03;;;28.48;47.81
26859;BME280;14429;48.346;16.338;2023-07-13T10:14:02;99598.09;;;28.29;48.16
26859;BME280;14429;48.346;16.338;2023-07-13T10:16:30;99607.81;;;28.32;48.04
26859;BME280;14429;48.346;16.338;2023-07-13T10:18:58;99605.88;;;28.39;48.08
26859;BME280;14429;48.346;16.338;2023-07-13T10:21:30;99604.44;;;28.30;48.46
26859;BME280;14429;48.346;16.338;2023-07-13T10:24:02;99593.03;;;28.33;47.92
26859;BME280;14429;48.346;16.338;2023-07-13T10:26:33;99595.16;;;28.31;48.16
26859;BME280;14429;48.346;16.338;2023-07-13T10:29:02;99601.94;;;28.22;48.43
26859;BME280;14429;48.346;16.338;2023-07-13T10:31:30;99599.81;;;28.30;48.53
26859;BME280;14429;48.346;16.338;2023-07-13T10:33:56;99599.75;;;28.37;48.16
26859;BME280;14429;48.346;16.338;2023-07-13T10:36:31;99597.91;;;28.31;48.01
26859;BME280;14429;48.346;16.338;2023-07-13T10:39:00;99604.38;;;28.49;47.81
26859;BME280;14429;48.346;16.338;2023-07-13T10:41:27;99600.53;;;28.56;47.73
26859;BME280;14429;48.346;16.338;2023-07-13T10:43:55;99602.22;;;28.57;47.41
26859;BME280;14429;48.346;16.338;2023-07-13T10:46:24;99595.75;;;28.45;47.55
26859;BME280;14429;48.346;16.338;2023-07-13T10:48:52;99590.41;;;28.57;48.75
26859;BME280;14429;48.346;16.338;2023-07-13T10:51:19;99579.84;;;28.54;47.44
26859;BME280;14429;48.346;16.338;2023-07-13T10:53:47;99572.63;;;28.59;46.97
26859;BME280;14429;48.346;16.338;2023-07-13T10:56:22;99575.06;;;28.73;47.06
26859;BME280;14429;48.346;16.338;2023-07-13T10:59:02;99565.00;;;28.61;47.04
26859;BME280;14429;48.346;16.338;2023-07-13T11:01:39;99574.75;;;28.57;47.34
26859;BME280;14429;48.346;16.338;2023-07-13T11:04:10;99573.25;;;28.61;47.47
26859;BME280;14429;48.346;16.338;2023-07-13T11:06:38;99578.09;;;28.59;47.24
26859;BME280;14429;48.346;16.338;2023-07-13T11:09:30;99573.56;;;28.47;47.54
26859;BME280;14429;48.346;16.338;2023-07-13T11:11:56;99580.78;;;28.35;47.98
26859;BME280;14429;48.346;16.338;2023-07-13T11:14:30;99574.44;;;28.35;47.69
26859;BME280;14429;48.346;16.338;2023-07-13T11:16:56;99576.75;;;28.38;47.84
26859;BME280;14429;48.346;16.338;2023-07-13T11:19:43;99577.31;;;28.52;47.49
26859;BME280;14429;48.346;16.338;2023-07-13T11:22:19;99584.31;;;28.48;47.48
26859;BME280;14429;48.346;16.338;2023-07-13T11:24:57;99587.50;;;28.45;47.57
26859;BME280;14429;48.346;16.338;2023-07-13T11:27:37;99583.25;;;28.43;47.45
26859;BME280;14429;48.346;16.338;2023-07-13T11:30:24;99576.13;;;28.36;47.51
26859;BME280;14429;48.346;16.338;2023-07-13T11:32:50;99571.81;;;28.52;47.32
26859;BME280;14429;48.346;16.338;2023-07-13T11:35:21;99579.81;;;28.60;47.29
26859;BME280;14429;48.346;16.338;2023-07-13T11:37:47;99574.31;;;28.60;46.91
26859;BME280;14429;48.346;16.338;2023-07-13T11:40:15;99582.78;;;28.52;47.20
26859;BME280;14429;48.346;16.338;2023-07-13T11:42:40;99578.56;;;28.56;47.58
26859;BME280;14429;48.346;16.338;2023-07-13T11:45:19;99587.91;;;28.43;47.11
26859;BME280;14429;48.346;16.338;2023-07-13T11:47:45;99585.38;;;28.41;47.40
26859;BME280;14429;48.346;16.338;2023-07-13T11:50:18;99582.84;;;28.40;47.34
26859;BME280;14429;48.346;16.338;2023-07-13T11:52:43;99587.50;;;28.45;47.11
26859;BME280;14429;48.346;16.338;2023-07-13T11:55:17;99590.44;;;28.50;46.64
26859;BME280;14429;48.346;16.338;2023-07-13T11:57:49;99587.50;;;28.39;47.41
26859;BME280;14429;48.346;16.338;2023-07-13T12:00:17;99574.38;;;28.47;46.77
26859;BME280;14429;48.346;16.338;2023-07-13T12:02:46;99575.28;;;28.35;47.03
26859;BME280;14429;48.346;16.338;2023-07-13T12:05:14;99564.75;;;28.26;47.47
26859;BME280;14429;48.346;16.338;2023-07-13T12:07:40;99565.78;;;28.38;47.20
26859;BME280;14429;48.346;16.338;2023-07-13T12:10:19;99566.78;;;28.49;46.74
26859;BME280;14429;48.346;16.338;2023-07-13T12:12:47;99568.03;;;28.53;46.81
26859;BME280;14429;48.346;16.338;2023-07-13T12:15:13;99561.63;;;28.59;46.74
26859;BME280;14429;48.346;16.338;2023-07-13T12:17:38;99559.09;;;28.64;46.23
26859;BME280;14429;48.346;16.338;2023-07-13T12:20:16;99562.00;;;28.69;46.16
26859;BME280;14429;48.346;16.338;2023-07-13T12:22:45;99554.81;;;28.68;46.31
26859;BME280;14429;48.346;16.338;2023-07-13T12:25:12;99544.44;;;28.70;46.11
26859;BME280;14429;48.346;16.338;2023-07-13T12:27:39;99537.44;;;28.74;44.82
26859;BME280;14429;48.346;16.338;2023-07-13T12:30:24;99550.13;;;28.75;45.74
26859;BME280;14429;48.346;16.338;2023-07-13T12:32:58;99555.44;;;28.70;46.27
26859;BME280;14429;48.346;16.338;2023-07-13T12:35:26;99549.13;;;28.63;46.41
26859;BME280;14429;48.346;16.338;2023-07-13T12:37:53;99560.34;;;28.62;46.29
26859;BME280;14429;48.346;16.338;2023-07-13T12:40:20;99565.00;;;28.61;45.88
26859;BME280;14429;48.346;16.338;2023-07-13T12:42:49;99565.34;;;28.71;46.01
26859;BME280;14429;48.346;16.338;2023-07-13T12:45:20;99555.69;;;28.62;44.85
26859;BME280;14429;48.346;16.338;2023-07-13T12:47:49;99546.69;;;28.79;45.61
26859;BME280;14429;48.346;16.338;2023-07-13T12:50:17;99555.78;;;28.80;45.43